KDRI/DRI METAR and TAF weather

Enter ICAO airport designator
Station Type Date Time Source
KDRI METAR 2020/05/30 05:55 UTC NOAA

KDRI 300555Z AUTO 03003KT 10SM CLR 22/18 A3009 RMK AO2 T02170178 10287 20215 403030170


Station Type Date Time Source
KDRI Decoded METAR 2020/05/30 05:55 UTC NOAA

De Ridder, Beauregard Parish Airport, LA, United States (KDRI) 30-49-54N 093-20-23W
May 30, 2020 - 01:55 AM EDT / 2020.05.30 0555 UTC
Wind: from the NNE (030 degrees) at 3 MPH (3 KT):0
Visibility: 10 mile(s):0
Sky conditions: clear
Temperature: 71.1 F (21.7 C)
Dew Point: 64.0 F (17.8 C)
Relative Humidity: 78%
Pressure (altimeter): 30.09 in. Hg (1018 hPa)
ob: KDRI 300555Z AUTO 03003KT 10SM CLR 22/18 A3009 RMK AO2 T02170178 10287 20215 403030170
cycle: 6

Station Type Date Time Source
KDRI TAF UTC NOAA

Error!

Example: see airport list